createdAt,value
2018-02-21T00:00:54.358Z,4.00
2018-02-21T00:01:54.331Z,4.00
2018-02-21T00:02:54.300Z,4.00
2018-02-21T00:03:54.274Z,4.00
2018-02-21T00:04:54.248Z,4.00
2018-02-21T00:05:54.221Z,4.00
2018-02-21T00:06:54.193Z,4.00
2018-02-21T00:07:54.172Z,4.00
2018-02-21T00:08:54.139Z,4.00
2018-02-21T00:09:54.113Z,4.00
2018-02-21T00:10:54.097Z,4.00
2018-02-21T00:11:54.073Z,4.00
2018-02-21T00:12:54.032Z,4.00
2018-02-21T00:13:54.012Z,4.00
2018-02-21T00:14:53.981Z,4.00
2018-02-21T00:15:53.953Z,4.00
2018-02-21T00:16:53.927Z,4.00
2018-02-21T00:17:53.901Z,4.00
2018-02-21T00:18:53.875Z,4.00
2018-02-21T00:19:53.929Z,4.00
2018-02-21T00:20:53.824Z,4.00
2018-02-21T00:21:53.796Z,4.00
2018-02-21T00:22:53.768Z,4.00
2018-02-21T00:23:53.743Z,4.00
2018-02-21T00:24:53.712Z,4.00
2018-02-21T00:25:53.688Z,4.00
2018-02-21T00:26:53.665Z,4.00
2018-02-21T00:27:53.637Z,4.00
2018-02-21T00:28:53.610Z,4.00
2018-02-21T00:29:53.582Z,4.00
2018-02-21T00:30:53.587Z,4.00
2018-02-21T00:31:53.530Z,4.00
2018-02-21T00:32:53.503Z,4.00
2018-02-21T00:33:53.495Z,4.00
2018-02-21T00:34:53.452Z,4.00
2018-02-21T00:35:53.422Z,4.00
2018-02-21T00:36:53.405Z,4.00
2018-02-21T00:37:53.370Z,4.00
2018-02-21T00:38:53.350Z,4.00
2018-02-21T00:39:53.326Z,4.00
2018-02-21T00:40:53.291Z,4.00
2018-02-21T00:41:53.264Z,4.00
2018-02-21T00:42:53.237Z,4.00
2018-02-21T00:43:53.220Z,4.00
2018-02-21T00:44:53.185Z,4.00
2018-02-21T00:45:53.170Z,4.00
2018-02-21T00:46:53.136Z,4.00
2018-02-21T00:47:53.105Z,4.00
2018-02-21T00:48:53.078Z,4.00
2018-02-21T00:49:53.049Z,4.00
2018-02-21T00:50:53.024Z,4.00
2018-02-21T00:51:52.995Z,4.00
2018-02-21T00:52:52.977Z,4.00
2018-02-21T00:53:52.944Z,4.00
2018-02-21T00:54:52.915Z,4.00
2018-02-21T00:55:52.894Z,4.00
2018-02-21T00:56:52.862Z,4.00
2018-02-21T00:57:52.843Z,4.00
2018-02-21T00:58:52.843Z,4.00
2018-02-21T00:59:52.787Z,4.00
2018-02-21T01:00:52.754Z,4.00
2018-02-21T01:01:52.748Z,4.00
2018-02-21T01:02:52.702Z,4.00
2018-02-21T01:03:52.675Z,4.00
2018-02-21T01:04:52.655Z,4.00
2018-02-21T01:05:52.623Z,4.00
2018-02-21T01:06:52.594Z,4.00
2018-02-21T01:07:52.571Z,4.00
2018-02-21T01:08:52.541Z,4.00
2018-02-21T01:09:52.514Z,4.00
2018-02-21T01:10:52.485Z,4.00
2018-02-21T01:11:52.461Z,4.00
2018-02-21T01:12:52.448Z,4.00
2018-02-21T01:13:52.414Z,4.00
2018-02-21T01:14:52.386Z,4.00
2018-02-21T01:15:52.428Z,4.00
2018-02-21T01:16:52.330Z,4.00
2018-02-21T01:17:52.300Z,4.00
2018-02-21T01:18:52.282Z,4.00
2018-02-21T01:19:52.249Z,4.00
2018-02-21T01:20:52.224Z,4.00
2018-02-21T01:21:52.195Z,4.00
2018-02-21T01:22:52.170Z,4.00
2018-02-21T01:23:52.147Z,4.00
2018-02-21T01:24:52.117Z,4.00
2018-02-21T01:25:52.099Z,4.00
2018-02-21T01:26:52.059Z,4.00
2018-02-21T01:27:52.033Z,4.00
2018-02-21T01:28:52.009Z,4.00
2018-02-21T01:29:51.979Z,4.00
2018-02-21T01:30:51.959Z,4.00
2018-02-21T01:31:51.929Z,4.00
2018-02-21T01:32:51.899Z,4.00
2018-02-21T01:33:51.872Z,4.00
2018-02-21T01:34:51.848Z,4.00
2018-02-21T01:35:51.818Z,4.00
2018-02-21T01:36:51.798Z,4.00
2018-02-21T01:37:51.783Z,4.00
2018-02-21T01:38:51.738Z,4.00
2018-02-21T01:39:51.712Z,4.00
2018-02-21T01:40:51.745Z,4.00
2018-02-21T01:41:51.658Z,4.00
2018-02-21T01:42:51.630Z,4.00
2018-02-21T01:43:51.660Z,4.00
2018-02-21T01:44:51.578Z,4.00
2018-02-21T01:45:51.548Z,4.00
2018-02-21T01:46:51.526Z,4.00
2018-02-21T01:47:51.495Z,4.00
2018-02-21T01:48:51.473Z,4.00
2018-02-21T01:49:51.445Z,4.00
2018-02-21T01:50:51.415Z,4.00
2018-02-21T01:51:51.388Z,4.00
2018-02-21T01:52:51.373Z,4.00
2018-02-21T01:53:51.352Z,4.00
2018-02-21T01:54:51.311Z,4.00
2018-02-21T01:55:51.289Z,4.00
2018-02-21T01:56:51.254Z,4.00
2018-02-21T01:57:51.236Z,4.00
2018-02-21T01:58:51.199Z,4.00
2018-02-21T01:59:51.176Z,4.00
2018-02-21T02:00:51.158Z,4.00
2018-02-21T02:01:51.119Z,4.00
2018-02-21T02:02:51.093Z,4.00
2018-02-21T02:03:51.067Z,4.00
2018-02-21T02:04:51.036Z,4.00
2018-02-21T02:05:51.018Z,4.00
2018-02-21T02:06:50.986Z,4.00
2018-02-21T02:07:50.958Z,4.00
2018-02-21T02:08:50.945Z,4.00
2018-02-21T02:09:50.907Z,4.00
2018-02-21T02:10:50.876Z,4.00
2018-02-21T02:11:50.859Z,4.00
2018-02-21T02:12:50.824Z,4.00
2018-02-21T02:13:50.796Z,4.00
2018-02-21T02:14:50.773Z,4.00
2018-02-21T02:15:50.742Z,4.00
2018-02-21T02:16:50.802Z,4.00
2018-02-21T02:17:50.696Z,4.00
2018-02-21T02:18:50.665Z,4.00
2018-02-21T02:19:50.737Z,4.00
2018-02-21T02:20:50.608Z,4.00
2018-02-21T02:21:50.590Z,4.00
2018-02-21T02:22:50.556Z,4.00
2018-02-21T02:23:50.527Z,4.00
2018-02-21T02:24:50.499Z,4.00
2018-02-21T02:25:50.472Z,4.00
2018-02-21T02:26:50.447Z,4.00
2018-02-21T02:27:50.422Z,4.00
2018-02-21T02:28:50.395Z,4.00
2018-02-21T02:29:50.365Z,4.00
2018-02-21T02:30:50.339Z,4.00
2018-02-21T02:31:50.311Z,4.00
2018-02-21T02:32:50.284Z,4.00
2018-02-21T02:33:50.259Z,4.00
2018-02-21T02:34:50.231Z,4.00
2018-02-21T02:35:50.203Z,4.00
2018-02-21T02:36:50.176Z,4.00
2018-02-21T02:37:50.151Z,4.00
2018-02-21T02:38:50.122Z,4.00
2018-02-21T02:39:50.100Z,4.00
2018-02-21T02:40:50.070Z,4.00
2018-02-21T02:41:50.041Z,4.00
2018-02-21T02:42:50.034Z,4.00
2018-02-21T02:43:49.989Z,4.00
2018-02-21T02:44:50.075Z,4.00
2018-02-21T02:45:49.932Z,4.00
2018-02-21T02:46:49.919Z,4.00
2018-02-21T02:47:49.882Z,4.00
2018-02-21T02:48:49.858Z,4.00
2018-02-21T02:49:49.824Z,4.00
2018-02-21T02:50:49.801Z,4.00
2018-02-21T02:51:49.775Z,4.00
2018-02-21T02:52:49.745Z,4.00
2018-02-21T02:53:49.725Z,4.00
2018-02-21T02:54:49.710Z,4.00
2018-02-21T02:55:49.813Z,4.00
2018-02-21T02:56:49.641Z,4.00
2018-02-21T02:57:49.608Z,4.00
2018-02-21T02:58:49.594Z,4.00
2018-02-21T02:59:49.557Z,4.00
2018-02-21T03:00:49.528Z,4.00
2018-02-21T03:01:49.515Z,4.00
2018-02-21T03:02:49.476Z,4.00
2018-02-21T03:03:49.456Z,4.00
2018-02-21T03:04:49.426Z,4.00
2018-02-21T03:05:49.394Z,4.00
2018-02-21T03:06:49.382Z,4.00
2018-02-21T03:07:49.338Z,4.00
2018-02-21T03:08:49.311Z,4.00
2018-02-21T03:09:49.286Z,4.00
2018-02-21T03:10:49.254Z,4.00
2018-02-21T03:11:49.230Z,4.00
2018-02-21T03:12:49.200Z,4.00
2018-02-21T03:13:49.176Z,4.00
2018-02-21T03:14:49.147Z,4.00
2018-02-21T03:15:49.120Z,4.00
2018-02-21T03:16:49.106Z,4.00
2018-02-21T03:17:49.067Z,4.00
2018-02-21T03:18:49.039Z,4.00
2018-02-21T03:19:49.014Z,4.00
2018-02-21T03:20:48.984Z,4.00
2018-02-21T03:21:48.956Z,4.00
2018-02-21T03:22:48.928Z,4.00
2018-02-21T03:23:49.050Z,4.00
2018-02-21T03:24:48.875Z,4.00
2018-02-21T03:25:48.848Z,4.00
2018-02-21T03:26:48.859Z,4.00
2018-02-21T03:27:48.797Z,4.00
2018-02-21T03:28:48.768Z,4.00
2018-02-21T03:29:48.753Z,4.00
2018-02-21T03:30:48.714Z,4.00
2018-02-21T03:31:48.685Z,4.00
2018-02-21T03:32:48.658Z,4.00
2018-02-21T03:33:48.630Z,4.00
2018-02-21T03:34:48.602Z,4.00
2018-02-21T03:35:48.578Z,4.00
2018-02-21T03:36:48.547Z,4.00
2018-02-21T03:37:48.627Z,4.00
2018-02-21T03:38:48.494Z,4.00
2018-02-21T03:39:48.472Z,4.00
2018-02-21T03:40:48.441Z,4.00
2018-02-21T03:41:48.417Z,4.00
2018-02-21T03:42:48.386Z,4.00
2018-02-21T03:43:48.361Z,4.00
2018-02-21T03:44:48.332Z,4.00
2018-02-21T03:45:48.304Z,4.00
2018-02-21T03:46:48.276Z,4.00
2018-02-21T03:47:48.252Z,4.00
2018-02-21T03:48:48.223Z,4.00
2018-02-21T03:49:48.199Z,4.00
2018-02-21T03:50:48.170Z,4.00
2018-02-21T03:51:48.139Z,4.00
2018-02-21T03:52:48.112Z,4.00
2018-02-21T03:53:48.090Z,4.00
2018-02-21T03:54:48.066Z,4.00
2018-02-21T03:55:48.036Z,4.00
2018-02-21T03:56:48.005Z,4.00
2018-02-21T03:57:47.980Z,4.00
2018-02-21T03:58:47.950Z,4.00
2018-02-21T03:59:47.929Z,4.00
2018-02-21T04:00:47.898Z,4.00
2018-02-21T04:01:47.869Z,4.00
2018-02-21T04:02:47.841Z,4.00
2018-02-21T04:03:47.813Z,4.00
2018-02-21T04:04:47.788Z,4.00
2018-02-21T04:05:47.917Z,4.00
2018-02-21T04:06:47.733Z,4.00
2018-02-21T04:07:47.704Z,4.00
2018-02-21T04:08:47.780Z,4.00
2018-02-21T04:09:47.650Z,4.00
2018-02-21T04:10:47.622Z,4.00
2018-02-21T04:11:47.619Z,4.00
2018-02-21T04:12:47.571Z,4.00
2018-02-21T04:13:47.539Z,4.00
2018-02-21T04:14:47.517Z,4.00
2018-02-21T04:15:47.495Z,4.00
2018-02-21T04:16:47.467Z,4.00
2018-02-21T04:17:47.433Z,4.00
2018-02-21T04:18:47.405Z,4.00
2018-02-21T04:19:47.381Z,4.00
2018-02-21T04:20:47.350Z,4.00
2018-02-21T04:21:47.322Z,4.00
2018-02-21T04:22:47.296Z,4.00
2018-02-21T04:23:47.270Z,4.00
2018-02-21T04:24:47.241Z,4.00
2018-02-21T04:25:47.215Z,4.00
2018-02-21T04:26:47.191Z,4.00
2018-02-21T04:27:47.160Z,4.00
2018-02-21T04:28:47.140Z,4.00
2018-02-21T04:29:47.104Z,4.00
2018-02-21T04:30:47.096Z,4.00
2018-02-21T04:31:47.052Z,4.00
2018-02-21T04:32:47.025Z,4.00
2018-02-21T04:33:46.997Z,4.00
2018-02-21T04:34:46.971Z,4.00
2018-02-21T04:35:46.944Z,4.00
2018-02-21T04:36:46.913Z,4.00
2018-02-21T04:37:46.887Z,4.00
2018-02-21T04:38:46.859Z,4.00
2018-02-21T04:39:46.834Z,4.00
2018-02-21T04:40:46.803Z,4.00
2018-02-21T04:41:46.777Z,4.00
2018-02-21T04:42:46.753Z,4.00
2018-02-21T04:43:46.725Z,4.00
2018-02-21T04:44:46.796Z,4.00
2018-02-21T04:45:46.668Z,4.00
2018-02-21T04:46:46.642Z,4.00
2018-02-21T04:47:46.630Z,4.00
2018-02-21T04:48:46.587Z,4.00
2018-02-21T04:49:46.558Z,4.00
2018-02-21T04:50:46.633Z,4.00
2018-02-21T04:51:46.504Z,4.00
2018-02-21T04:52:46.478Z,4.00
2018-02-21T04:53:46.457Z,4.00
2018-02-21T04:54:46.423Z,4.00
2018-02-21T04:55:46.395Z,4.00
2018-02-21T04:56:46.367Z,4.00
2018-02-21T04:57:46.341Z,4.00
2018-02-21T04:58:46.315Z,4.00
2018-02-21T04:59:46.287Z,4.00
2018-02-21T05:00:46.270Z,4.00
2018-02-21T05:01:46.237Z,4.00
2018-02-21T05:02:46.203Z,4.00
2018-02-21T05:03:46.181Z,4.00
2018-02-21T05:04:46.151Z,4.00
2018-02-21T05:05:46.119Z,4.00
2018-02-21T05:06:46.097Z,4.00
2018-02-21T05:07:46.072Z,4.00
2018-02-21T05:08:46.041Z,4.00
2018-02-21T05:09:46.013Z,4.00
2018-02-21T05:10:45.984Z,4.00
2018-02-21T05:11:45.959Z,4.00
2018-02-21T05:12:45.930Z,4.00
2018-02-21T05:13:45.906Z,4.00
2018-02-21T05:14:45.877Z,4.00
2018-02-21T05:15:45.850Z,4.00
2018-02-21T05:16:45.819Z,4.00
2018-02-21T05:17:45.795Z,4.00
2018-02-21T05:18:45.768Z,4.00
2018-02-21T05:19:45.739Z,4.00
2018-02-21T05:20:45.792Z,4.00
2018-02-21T05:21:45.690Z,4.00
2018-02-21T05:22:45.659Z,4.00
2018-02-21T05:23:45.647Z,4.00
2018-02-21T05:24:45.599Z,4.00
2018-02-21T05:25:45.572Z,4.00
2018-02-21T05:26:45.550Z,4.00
2018-02-21T05:27:45.519Z,4.00
2018-02-21T05:28:45.489Z,4.00
2018-02-21T05:29:45.463Z,4.00
2018-02-21T05:30:45.438Z,4.00
2018-02-21T05:31:45.409Z,4.00
2018-02-21T05:32:45.379Z,4.00
2018-02-21T05:33:45.357Z,4.00
2018-02-21T05:34:45.326Z,4.00
2018-02-21T05:35:45.299Z,4.00
2018-02-21T05:36:45.273Z,4.00
2018-02-21T05:37:45.244Z,4.00
2018-02-21T05:38:45.215Z,4.00
2018-02-21T05:39:45.191Z,4.00
2018-02-21T05:40:45.162Z,4.00
2018-02-21T05:41:45.137Z,4.00
2018-02-21T05:42:45.108Z,4.00
2018-02-21T05:43:45.081Z,4.00
2018-02-21T05:44:45.054Z,4.00
2018-02-21T05:45:45.027Z,4.00
2018-02-21T05:46:44.994Z,4.00
2018-02-21T05:47:44.967Z,4.00
2018-02-21T05:48:45.020Z,4.00
2018-02-21T05:49:44.916Z,4.00
2018-02-21T05:50:44.885Z,4.00
2018-02-21T05:51:44.869Z,4.00
2018-02-21T05:52:44.829Z,4.00
2018-02-21T05:53:44.815Z,4.00
2018-02-21T05:54:44.810Z,0.00
2018-02-21T05:55:44.746Z,4.00
2018-02-21T05:56:44.723Z,4.00
2018-02-21T05:57:44.694Z,4.00
2018-02-21T05:58:44.663Z,4.00
2018-02-21T05:59:44.636Z,8.00
2018-02-21T06:00:44.609Z,4.00
2018-02-21T06:01:44.581Z,8.00
2018-02-21T06:02:44.670Z,8.00
2018-02-21T06:03:44.523Z,8.00
2018-02-21T06:04:44.497Z,8.00
2018-02-21T06:05:44.535Z,8.00
2018-02-21T06:06:44.443Z,12.00
2018-02-21T06:07:44.412Z,16.00
2018-02-21T06:08:44.387Z,16.00
2018-02-21T06:09:44.358Z,16.00
2018-02-21T06:10:44.332Z,20.00
2018-02-21T06:11:44.303Z,24.00
2018-02-21T06:12:44.277Z,28.00
2018-02-21T06:13:44.259Z,28.00
2018-02-21T06:14:44.222Z,32.00
2018-02-21T06:15:44.199Z,36.00
2018-02-21T06:16:44.168Z,44.00
2018-02-21T06:17:44.136Z,52.00
2018-02-21T06:18:44.106Z,60.00
2018-02-21T06:19:44.085Z,68.00
2018-02-21T06:20:44.068Z,76.00
2018-02-21T06:21:44.031Z,88.00
2018-02-21T06:22:43.997Z,96.00
2018-02-21T06:23:43.971Z,112.00
2018-02-21T06:24:43.943Z,128.00
2018-02-21T06:25:43.912Z,140.00
2018-02-21T06:26:43.885Z,160.00
2018-02-21T06:27:43.859Z,176.00
2018-02-21T06:28:43.828Z,196.00
2018-02-21T06:29:43.803Z,216.00
2018-02-21T06:30:43.882Z,236.00
2018-02-21T06:31:43.749Z,256.00
2018-02-21T06:32:43.721Z,276.00
2018-02-21T06:33:43.715Z,300.00
2018-02-21T06:34:43.662Z,324.00
2018-02-21T06:35:43.642Z,348.00
2018-02-21T06:36:43.622Z,376.00
2018-02-21T06:37:43.580Z,408.00
2018-02-21T06:38:43.554Z,436.00
2018-02-21T06:39:43.523Z,464.00
2018-02-21T06:40:43.499Z,496.00
2018-02-21T06:41:43.468Z,524.00
2018-02-21T06:42:43.437Z,556.00
2018-02-21T06:43:43.410Z,596.00
2018-02-21T06:44:43.386Z,640.00
2018-02-21T06:45:43.351Z,676.00
2018-02-21T06:46:43.327Z,696.00
2018-02-21T06:47:43.300Z,736.00
2018-02-21T06:48:43.269Z,796.00
2018-02-21T06:49:43.243Z,860.00
2018-02-21T06:50:43.217Z,928.00
2018-02-21T06:51:43.189Z,988.00
2018-02-21T06:52:43.158Z,1040.00
2018-02-21T06:53:43.132Z,1100.00
2018-02-21T06:54:43.106Z,1172.00
2018-02-21T06:55:43.077Z,1240.00
2018-02-21T06:56:43.048Z,1288.00
2018-02-21T06:57:43.029Z,1332.00
2018-02-21T06:58:42.995Z,1376.00
2018-02-21T06:59:42.978Z,1420.00
2018-02-21T07:00:42.935Z,1460.00
2018-02-21T07:01:42.908Z,1528.00
2018-02-21T07:02:42.883Z,1624.00
2018-02-21T07:03:42.854Z,1752.00
2018-02-21T07:04:42.828Z,1888.00
2018-02-21T07:05:42.801Z,2012.00
2018-02-21T07:06:42.778Z,2108.00
2018-02-21T07:07:42.744Z,2192.00
2018-02-21T07:08:42.722Z,2268.00
2018-02-21T07:09:42.687Z,2344.00
2018-02-21T07:10:42.677Z,2416.00
2018-02-21T07:11:42.633Z,2484.00
2018-02-21T07:12:42.664Z,2556.00
2018-02-21T07:13:42.575Z,2632.00
2018-02-21T07:14:42.549Z,2704.00
2018-02-21T07:15:42.606Z,2776.00
2018-02-21T07:16:42.495Z,2828.00
2018-02-21T07:17:42.466Z,2880.00
2018-02-21T07:18:42.440Z,2944.00
2018-02-21T07:19:42.417Z,3016.00
2018-02-21T07:20:42.390Z,3092.00
2018-02-21T07:21:42.356Z,3160.00
2018-02-21T07:22:42.335Z,3212.00
2018-02-21T07:23:42.309Z,3264.00
2018-02-21T07:24:42.273Z,3320.00
2018-02-21T07:25:42.244Z,3376.00
2018-02-21T07:26:42.216Z,3432.00
2018-02-21T07:27:42.201Z,3488.00
2018-02-21T07:28:42.164Z,3556.00
2018-02-21T07:29:42.133Z,3612.00
2018-02-21T07:30:42.112Z,3660.00
2018-02-21T07:31:42.087Z,3716.00
2018-02-21T07:32:42.057Z,3780.00
2018-02-21T07:33:42.025Z,3828.00
2018-02-21T07:34:42.002Z,3896.00
2018-02-21T07:35:41.971Z,3968.00
2018-02-21T07:36:41.945Z,4024.00
2018-02-21T07:37:41.920Z,4104.00
2018-02-21T07:38:41.892Z,4172.00
2018-02-21T07:39:41.862Z,4260.00
2018-02-21T07:40:41.835Z,4324.00
2018-02-21T07:41:41.810Z,4408.00
2018-02-21T07:42:41.781Z,4460.00
2018-02-21T07:43:41.760Z,4508.00
2018-02-21T07:44:41.730Z,4568.00
2018-02-21T07:45:41.699Z,4616.00
2018-02-21T07:46:41.683Z,4656.00
2018-02-21T07:47:41.646Z,4716.00
2018-02-21T07:48:41.615Z,4784.00
2018-02-21T07:49:41.591Z,4844.00
2018-02-21T07:50:41.563Z,4896.00
2018-02-21T07:51:41.637Z,4976.00
2018-02-21T07:52:41.517Z,5028.00
2018-02-21T07:53:41.483Z,5060.00
2018-02-21T07:54:41.483Z,5112.00
2018-02-21T07:55:41.439Z,5180.00
2018-02-21T07:56:41.400Z,5228.00
2018-02-21T07:57:41.380Z,5280.00
2018-02-21T07:58:41.348Z,5336.00
2018-02-21T07:59:41.320Z,5392.00
2018-02-21T08:00:41.291Z,5384.00
2018-02-21T08:01:41.279Z,5412.00
2018-02-21T08:02:41.237Z,5440.00
2018-02-21T08:03:41.213Z,5520.00
2018-02-21T08:04:41.183Z,5592.00
2018-02-21T08:05:41.157Z,5620.00
2018-02-21T08:06:41.134Z,5648.00
2018-02-21T08:07:41.115Z,5768.00
2018-02-21T08:08:41.071Z,5796.00
2018-02-21T08:09:41.047Z,5920.00
2018-02-21T08:10:41.020Z,5896.00
2018-02-21T08:11:40.993Z,6036.00
2018-02-21T08:12:40.966Z,6092.00
2018-02-21T08:13:40.939Z,6180.00
2018-02-21T08:14:40.923Z,6216.00
2018-02-21T08:15:40.896Z,6260.00
2018-02-21T08:16:40.859Z,6376.00
2018-02-21T08:17:40.838Z,6424.00
2018-02-21T08:18:40.805Z,6524.00
2018-02-21T08:19:40.780Z,6532.00
2018-02-21T08:20:40.758Z,6596.00
2018-02-21T08:21:40.728Z,6656.00
2018-02-21T08:22:40.707Z,6744.00
2018-02-21T08:23:40.673Z,6804.00
2018-02-21T08:24:40.645Z,6844.00
2018-02-21T08:25:40.616Z,6960.00
2018-02-21T08:26:40.603Z,7084.00
2018-02-21T08:27:40.573Z,7176.00
2018-02-21T08:28:40.537Z,7248.00
2018-02-21T08:29:40.510Z,7292.00
2018-02-21T08:30:40.619Z,7420.00
2018-02-21T08:31:40.457Z,7452.00
2018-02-21T08:32:40.431Z,7568.00
2018-02-21T08:33:40.470Z,7688.00
2018-02-21T08:34:40.443Z,7832.00
2018-02-21T08:35:40.357Z,7916.00
2018-02-21T08:36:40.326Z,7956.00
2018-02-21T08:37:40.299Z,8004.00
2018-02-21T08:38:40.277Z,8100.00
2018-02-21T08:39:40.245Z,8188.00
2018-02-21T08:40:40.277Z,8256.00
2018-02-21T08:41:40.203Z,8348.00
2018-02-21T08:42:40.169Z,8424.00
2018-02-21T08:43:40.144Z,8592.00
2018-02-21T08:44:40.121Z,8824.00
2018-02-21T08:45:40.088Z,8896.00
2018-02-21T08:46:40.063Z,8972.00
2018-02-21T08:47:40.044Z,8888.00
2018-02-21T08:48:40.013Z,8812.00
2018-02-21T08:49:39.990Z,8836.00
2018-02-21T08:50:39.957Z,8804.00
2018-02-21T08:51:39.940Z,8776.00
2018-02-21T08:52:39.904Z,8720.00
2018-02-21T08:53:39.876Z,8636.00
2018-02-21T08:54:39.864Z,8576.00
2018-02-21T08:55:39.838Z,8528.00
2018-02-21T08:56:39.802Z,8492.00
2018-02-21T08:57:39.773Z,8512.00
2018-02-21T08:58:39.774Z,8544.00
2018-02-21T08:59:39.727Z,8512.00
2018-02-21T09:00:39.700Z,8516.00
2018-02-21T09:01:39.724Z,8568.00
2018-02-21T09:02:39.653Z,8556.00
2018-02-21T09:03:39.626Z,8600.00
2018-02-21T09:04:39.607Z,8608.00
2018-02-21T09:05:39.577Z,8608.00
2018-02-21T09:06:39.539Z,8624.00
2018-02-21T09:07:39.515Z,8660.00
2018-02-21T09:08:39.490Z,8644.00
2018-02-21T09:09:39.479Z,8708.00
2018-02-21T09:10:39.448Z,8756.00
2018-02-21T09:11:39.411Z,8904.00
2018-02-21T09:12:39.392Z,9052.00
2018-02-21T09:13:39.360Z,9636.00
2018-02-21T09:14:39.342Z,12220.00
2018-02-21T09:15:39.308Z,17632.00
2018-02-21T09:16:39.378Z,23328.00
2018-02-21T09:17:39.259Z,35072.00
2018-02-21T09:18:39.234Z,30848.00
2018-02-21T09:19:39.208Z,28864.00
2018-02-21T09:20:39.183Z,39840.00
2018-02-21T09:21:39.159Z,34368.00
2018-02-21T09:22:39.136Z,38560.00
2018-02-21T09:23:39.118Z,36832.00
2018-02-21T09:24:39.087Z,39264.00
2018-02-21T09:25:39.061Z,37248.00
2018-02-21T09:26:39.038Z,31776.00
2018-02-21T09:27:39.017Z,29280.00
2018-02-21T09:28:38.991Z,31264.00
2018-02-21T09:29:38.970Z,32128.00
2018-02-21T09:30:38.947Z,40736.00
2018-02-21T09:31:38.941Z,44096.00
2018-02-21T09:32:38.925Z,46400.00
2018-02-21T09:33:38.882Z,44640.00
2018-02-21T09:34:38.892Z,44256.00
2018-02-21T09:35:38.842Z,44224.00
2018-02-21T09:36:38.820Z,47936.00
2018-02-21T09:37:38.857Z,47808.00
2018-02-21T09:38:38.780Z,45216.00
2018-02-21T09:39:38.761Z,40864.00
2018-02-21T09:40:38.767Z,36032.00
2018-02-21T09:41:38.820Z,37088.00
2018-02-21T09:42:38.704Z,40160.00
2018-02-21T09:43:38.686Z,37280.00
2018-02-21T09:44:38.668Z,32416.00
2018-02-21T09:45:38.658Z,33344.00
2018-02-21T09:46:38.633Z,35584.00
2018-02-21T09:47:38.615Z,32960.00
2018-02-21T09:48:38.594Z,29472.00
2018-02-21T09:49:38.588Z,26432.00
2018-02-21T09:50:38.598Z,30432.00
2018-02-21T09:51:38.553Z,29696.00
2018-02-21T09:52:38.526Z,27680.00
2018-02-21T09:53:38.587Z,27424.00
2018-02-21T09:54:38.494Z,20320.00
2018-02-21T09:55:38.476Z,17760.00
2018-02-21T09:56:38.465Z,15392.00
2018-02-21T09:57:38.445Z,28736.00
2018-02-21T09:58:38.424Z,28544.00
2018-02-21T09:59:38.406Z,29600.00
2018-02-21T10:00:38.387Z,31744.00
2018-02-21T10:01:38.377Z,34688.00
2018-02-21T10:02:38.362Z,37664.00
2018-02-21T10:03:38.337Z,36448.00
2018-02-21T10:04:38.322Z,36064.00
2018-02-21T10:05:38.305Z,34016.00
2018-02-21T10:06:38.286Z,36000.00
2018-02-21T10:07:38.271Z,37760.00
2018-02-21T10:08:38.257Z,39712.00
2018-02-21T10:09:38.244Z,41120.00
2018-02-21T10:10:38.222Z,41504.00
2018-02-21T10:11:38.207Z,40864.00
2018-02-21T10:12:38.192Z,39904.00
2018-02-21T10:13:38.177Z,39392.00
2018-02-21T10:14:38.156Z,39424.00
2018-02-21T10:15:38.146Z,40128.00
2018-02-21T10:16:38.125Z,40288.00
2018-02-21T10:17:38.228Z,43360.00
2018-02-21T10:18:38.095Z,46528.00
2018-02-21T10:19:38.080Z,49600.00
2018-02-21T10:20:38.083Z,49088.00
2018-02-21T10:21:38.051Z,48064.00
2018-02-21T10:22:38.059Z,47936.00
2018-02-21T10:23:38.031Z,48256.00
2018-02-21T10:24:38.001Z,48832.00
2018-02-21T10:25:37.992Z,49952.00
2018-02-21T10:26:37.974Z,48480.00
2018-02-21T10:27:37.959Z,47296.00
2018-02-21T10:28:37.945Z,47584.00
2018-02-21T10:29:37.930Z,49984.00
2018-02-21T10:30:37.914Z,51456.00
2018-02-21T10:31:37.899Z,51360.00
2018-02-21T10:32:37.894Z,50944.00
2018-02-21T10:33:37.967Z,51616.00
2018-02-21T10:34:37.852Z,52928.00
2018-02-21T10:35:37.840Z,50080.00
2018-02-21T10:36:37.830Z,48608.00
2018-02-21T10:37:37.805Z,44896.00
2018-02-21T10:38:37.793Z,42304.00
2018-02-21T10:39:37.782Z,39712.00
2018-02-21T10:40:37.761Z,41248.00
2018-02-21T10:41:37.745Z,43264.00
2018-02-21T10:42:37.732Z,44000.00
2018-02-21T10:43:37.717Z,48192.00
2018-02-21T10:44:37.706Z,49504.00
2018-02-21T10:45:37.735Z,47648.00
2018-02-21T10:46:37.668Z,43008.00
2018-02-21T10:47:37.664Z,41056.00
2018-02-21T10:48:37.643Z,43552.00
2018-02-21T10:49:37.620Z,46080.00
2018-02-21T10:50:37.606Z,44640.00
2018-02-21T10:51:37.588Z,41696.00
2018-02-21T10:52:37.589Z,43936.00
2018-02-21T10:53:37.560Z,42592.00
2018-02-21T10:54:37.542Z,40576.00
2018-02-21T10:55:37.641Z,40064.00
2018-02-21T10:56:37.509Z,37696.00
2018-02-21T10:57:37.496Z,33088.00
2018-02-21T10:58:37.486Z,24608.00
2018-02-21T10:59:37.515Z,18528.00
2018-02-21T11:00:37.445Z,16192.00
2018-02-21T11:01:37.430Z,15776.00
2018-02-21T11:02:37.418Z,15160.00
2018-02-21T11:03:37.404Z,14912.00
2018-02-21T11:04:37.379Z,14964.00
2018-02-21T11:05:37.367Z,15104.00
2018-02-21T11:06:37.348Z,15116.00
2018-02-21T11:07:37.329Z,14800.00
2018-02-21T11:08:37.311Z,14700.00
2018-02-21T11:09:37.308Z,14532.00
2018-02-21T11:10:37.277Z,14072.00
2018-02-21T11:11:37.259Z,13980.00
2018-02-21T11:12:37.244Z,13760.00
2018-02-21T11:13:37.225Z,13636.00
2018-02-21T11:14:37.208Z,13540.00
2018-02-21T11:15:37.188Z,13404.00
2018-02-21T11:16:37.175Z,13208.00
2018-02-21T11:17:37.164Z,13384.00
2018-02-21T11:18:37.139Z,13332.00
2018-02-21T11:19:37.135Z,13188.00
2018-02-21T11:20:37.103Z,13048.00
2018-02-21T11:21:37.086Z,12908.00
2018-02-21T11:22:37.122Z,12880.00
2018-02-21T11:23:37.072Z,12660.00
2018-02-21T11:24:37.033Z,12812.00
2018-02-21T11:25:37.023Z,12656.00
2018-02-21T11:26:36.995Z,12456.00
2018-02-21T11:27:36.979Z,12600.00
2018-02-21T11:28:36.963Z,12372.00
2018-02-21T11:29:36.944Z,12516.00
2018-02-21T11:30:36.925Z,12600.00
2018-02-21T11:31:36.907Z,12524.00
2018-02-21T11:32:36.891Z,12332.00
2018-02-21T11:33:36.872Z,12136.00
2018-02-21T11:34:36.856Z,12112.00
2018-02-21T11:35:36.908Z,12088.00
2018-02-21T11:36:36.816Z,12384.00
2018-02-21T11:37:36.805Z,12248.00
2018-02-21T11:38:36.789Z,12232.00
2018-02-21T11:39:36.764Z,11940.00
2018-02-21T11:40:36.744Z,11952.00
2018-02-21T11:41:36.720Z,12156.00
2018-02-21T11:42:36.709Z,11660.00
2018-02-21T11:43:36.694Z,11652.00
2018-02-21T11:44:36.666Z,11668.00
2018-02-21T11:45:36.652Z,11416.00
2018-02-21T11:46:36.632Z,11108.00
2018-02-21T11:47:36.610Z,11152.00
2018-02-21T11:48:36.589Z,10160.00
2018-02-21T11:49:36.574Z,9232.00
2018-02-21T11:50:36.558Z,10788.00
2018-02-21T11:51:36.529Z,10816.00
2018-02-21T11:52:36.514Z,10376.00
2018-02-21T11:53:36.499Z,10872.00
2018-02-21T11:54:36.498Z,10556.00
2018-02-21T11:55:36.460Z,10488.00
2018-02-21T11:56:36.431Z,10468.00
2018-02-21T11:57:36.458Z,10404.00
2018-02-21T11:58:36.392Z,10428.00
2018-02-21T11:59:36.374Z,10440.00
2018-02-21T12:00:36.352Z,10384.00
2018-02-21T12:01:36.332Z,10348.00
2018-02-21T12:02:36.443Z,10476.00
2018-02-21T12:03:36.298Z,10484.00
2018-02-21T12:04:36.284Z,10460.00
2018-02-21T12:05:36.279Z,10488.00
2018-02-21T12:06:36.239Z,10444.00
2018-02-21T12:07:36.220Z,10552.00
2018-02-21T12:08:36.205Z,10792.00
2018-02-21T12:09:36.177Z,11024.00
2018-02-21T12:10:36.158Z,11440.00
2018-02-21T12:11:36.142Z,11976.00
2018-02-21T12:12:36.118Z,12664.00
2018-02-21T12:13:36.133Z,13448.00
2018-02-21T12:14:36.078Z,14224.00
2018-02-21T12:15:36.056Z,12288.00
2018-02-21T12:16:36.037Z,12560.00
2018-02-21T12:17:36.017Z,13512.00
2018-02-21T12:18:35.995Z,12660.00
2018-02-21T12:19:35.978Z,11356.00
2018-02-21T12:20:35.954Z,11848.00
2018-02-21T12:21:35.958Z,10836.00
2018-02-21T12:22:35.918Z,12672.00
2018-02-21T12:23:35.890Z,10992.00
2018-02-21T12:24:35.870Z,10264.00
2018-02-21T12:25:35.864Z,11596.00
2018-02-21T12:26:35.841Z,11316.00
2018-02-21T12:27:35.812Z,10100.00
2018-02-21T12:28:35.786Z,9708.00
2018-02-21T12:29:35.767Z,10936.00
2018-02-21T12:30:35.747Z,10936.00
2018-02-21T12:31:35.733Z,10488.00
2018-02-21T12:32:35.706Z,10944.00
2018-02-21T12:33:35.687Z,11080.00
2018-02-21T12:34:35.668Z,10824.00